Time;durP1;ratioP1;P1;durP2;ratioP2;P2;SDS_P1;SDS_P2;PMS_P1;PMS_P2;Temp;Humidity;BMP_temperature;BMP_pressure;BME280_temperature;BME280_humidity;BME280_pressure;Samples;Min_cycle;Max_cycle;Signal;HPM_P1;HPM_P2
2022/08/26 00:03:11;;;;;;;10.55;2.83;;;;;;;20.30;69.00;99884.16;10373833;28;20069;-71
2022/08/26 00:08:14;;;;;;;11.50;2.65;;;;;;;20.30;69.74;99893.06;10374523;28;20532;-72
2022/08/26 00:13:16;;;;;;;12.68;2.83;;;;;;;19.89;69.90;99842.94;10373780;28;20041;-71
2022/08/26 00:18:18;;;;;;;8.90;2.63;;;;;;;19.90;70.07;99847.31;10372918;28;20107;-71
2022/08/26 00:23:19;;;;;;;8.88;2.90;;;;;;;20.65;70.12;99964.13;10372789;28;20034;-71
2022/08/26 00:28:20;;;;;;;11.10;2.42;;;;;;;20.60;70.49;99969.41;10387845;28;20048;-71
2022/08/26 00:33:21;;;;;;;8.07;2.92;;;;;;;20.50;70.87;99957.34;10372896;28;20501;-71
2022/08/26 00:38:22;;;;;;;23.40;3.05;;;;;;;20.00;71.33;99887.09;10371553;28;20089;-71
2022/08/26 00:43:24;;;;;;;14.82;3.13;;;;;;;20.40;71.72;99946.38;10372826;28;20042;-71
2022/08/26 00:48:29;;;;;;;10.90;2.78;;;;;;;20.44;72.39;99955.63;10372551;28;20045;-70
2022/08/26 00:53:35;;;;;;;17.50;3.47;;;;;;;20.16;72.91;99912.47;10372898;28;20065;-72
2022/08/26 00:58:38;;;;;;;20.90;3.58;;;;;;;20.42;72.46;99967.72;10372039;28;20081;-72
2022/08/26 01:03:40;;;;;;;15.15;3.17;;;;;;;20.29;72.64;99961.56;10372102;28;20065;-71
2022/08/26 01:08:41;;;;;;;22.33;3.45;;;;;;;20.37;72.70;99968.44;10371672;28;20034;-72
2022/08/26 01:13:42;;;;;;;15.48;3.17;;;;;;;20.31;72.89;99972.09;10386900;28;20050;-72
2022/08/26 01:18:45;;;;;;;15.18;3.25;;;;;;;20.30;73.36;99970.47;10371528;28;20046;-73
2022/08/26 01:23:49;;;;;;;16.90;3.15;;;;;;;20.20;74.69;99964.88;10372426;28;20065;-72
2022/08/26 01:28:55;;;;;;;17.48;3.28;;;;;;;20.10;75.16;99956.56;10371286;28;20041;-71
2022/08/26 01:34:09;;;;;;;10.98;2.92;;;;;;;20.11;75.54;99958.25;10371569;28;20133;-72
2022/08/26 01:39:10;;;;;;;21.98;3.08;;;;;;;19.74;74.49;99901.97;10372015;28;20410;-71
2022/08/26 01:44:20;;;;;;;11.15;3.00;;;;;;;20.10;76.06;99960.09;10371002;28;20069;-71
2022/08/26 01:49:23;;;;;;;21.85;4.07;;;;;;;20.10;74.85;99967.38;10371329;28;20133;-71
2022/08/26 01:54:24;;;;;;;12.55;2.85;;;;;;;20.00;75.05;99960.72;10370875;28;20112;-71
2022/08/26 01:59:27;;;;;;;11.85;2.92;;;;;;;19.84;75.43;99934.53;10371562;28;20042;-70
2022/08/26 02:04:43;;;;;;;14.50;2.90;;;;;;;19.95;76.75;99957.94;10393161;28;20049;-72
2022/08/26 02:09:43;;;;;;;11.27;3.47;;;;;;;19.93;75.35;99954.66;10378225;28;20087;-71
2022/08/26 02:14:50;;;;;;;12.48;3.35;;;;;;;19.67;76.94;99920.97;10377813;28;20044;-72
2022/08/26 02:19:52;;;;;;;11.43;3.00;;;;;;;19.81;75.69;99962.78;10378155;28;20041;-71
2022/08/26 02:25:31;;;;;;;15.30;3.80;;;;;;;19.99;77.54;99974.44;10377535;28;20041;-71
2022/08/26 02:30:32;;;;;;;18.65;3.45;;;;;;;19.96;75.97;99989.22;10365703;28;20046;-71
2022/08/26 02:35:35;;;;;;;23.13;4.15;;;;;;;19.99;75.92;99990.63;10417231;28;20417;-72
2022/08/26 02:40:39;;;;;;;24.40;4.38;;;;;;;19.89;76.53;99977.72;10393035;28;20061;-69
2022/08/26 02:45:41;;;;;;;44.92;4.45;;;;;;;20.09;75.57;100000.78;10377569;28;20084;-71
2022/08/26 02:50:42;;;;;;;15.32;3.38;;;;;;;19.77;75.16;99945.44;10376802;28;20532;-73
2022/08/26 02:55:43;;;;;;;12.13;3.15;;;;;;;19.82;75.01;99942.84;10376794;28;20149;-73
2022/08/26 03:00:46;;;;;;;19.23;3.33;;;;;;;20.44;74.33;100011.47;10375760;28;20132;-73
2022/08/26 03:05:47;;;;;;;12.50;3.00;;;;;;;20.46;74.08;99993.13;10375069;28;20041;-74
2022/08/26 03:10:47;;;;;;;19.10;3.58;;;;;;;20.79;73.39;100007.78;10390640;28;20052;-74
2022/08/26 03:15:48;;;;;;;32.58;4.03;;;;;;;20.63;72.68;99953.53;10375772;28;20045;-73
2022/08/26 03:20:49;;;;;;;12.82;3.20;;;;;;;21.15;71.44;99999.25;10374965;28;20069;-73
2022/08/26 03:25:51;;;;;;;27.17;3.50;;;;;;;21.70;70.20;100032.78;10374988;28;20494;-73
2022/08/26 03:30:52;;;;;;;16.83;3.60;;;;;;;22.47;67.85;100033.78;10375169;28;20073;-72
2022/08/26 03:35:53;;;;;;;9.15;2.42;;;;;;;23.26;65.41;100049.44;10374323;28;20449;-72
2022/08/26 03:40:55;;;;;;;21.27;3.45;;;;;;;23.88;63.78;100032.50;10375266;28;20494;-73
2022/08/26 03:45:55;;;;;;;16.90;3.72;;;;;;;24.72;61.12;100063.25;10374707;28;20405;-74
2022/08/26 03:50:56;;;;;;;16.00;3.05;;;;;;;25.09;59.57;100045.09;10373644;28;20136;-73
2022/08/26 03:55:57;;;;;;;17.05;3.08;;;;;;;25.31;57.92;100006.75;10374572;28;20065;-73
2022/08/26 04:00:58;;;;;;;18.55;3.40;;;;;;;25.91;56.33;100041.22;10374051;28;20042;-73
2022/08/26 04:05:59;;;;;;;62.95;5.47;;;;;;;25.75;55.91;99982.47;10374006;28;20141;-72
2022/08/26 04:11:00;;;;;;;29.60;4.25;;;;;;;26.34;54.70;100036.13;10372570;28;20152;-74
2022/08/26 04:16:01;;;;;;;20.30;3.45;;;;;;;26.69;53.34;100028.09;10373302;28;20042;-73
2022/08/26 04:21:02;;;;;;;18.13;4.20;;;;;;;26.98;52.58;100033.56;10373941;28;20095;-72
2022/08/26 04:26:04;;;;;;;15.23;3.45;;;;;;;26.79;52.00;99981.69;10372940;28;20521;-73
2022/08/26 04:31:06;;;;;;;23.33;3.72;;;;;;;27.12;51.46;100056.38;10373838;28;20195;-72
2022/08/26 04:36:07;;;;;;;14.80;3.20;;;;;;;27.05;50.98;100059.44;10371221;28;20107;-73
2022/08/26 04:41:10;;;;;;;20.20;4.07;;;;;;;26.76;51.00;100001.31;10373028;28;20069;-72
2022/08/26 04:46:12;;;;;;;13.67;3.60;;;;;;;27.22;50.79;100060.94;10372282;28;20038;-72
2022/08/26 04:51:12;;;;;;;24.20;4.40;;;;;;;27.18;50.22;100049.81;10373011;28;20034;-72
2022/08/26 04:56:14;;;;;;;23.70;3.95;;;;;;;26.98;50.35;100055.38;10372914;28;20484;-73
2022/08/26 05:01:15;;;;;;;24.52;4.03;;;;;;;26.24;51.07;99998.09;10371823;28;20045;-67
2022/08/26 05:06:16;;;;;;;30.27;5.22;;;;;;;26.35;50.79;100018.69;10372965;28;20053;-72
2022/08/26 05:11:17;;;;;;;29.45;3.90;;;;;;;26.67;50.05;100063.78;10371410;28;20034;-72
2022/08/26 05:16:18;;;;;;;21.23;4.47;;;;;;;26.79;49.26;100069.69;10370977;28;20104;-72
2022/08/26 05:21:23;;;;;;;21.58;4.03;;;;;;;26.94;49.11;100059.78;10371542;28;20405;-76
2022/08/26 05:26:27;;;;;;;39.22;4.72;;;;;;;27.13;47.47;100047.06;10372070;28;20421;-72
2022/08/26 05:31:30;;;;;;;27.45;4.32;;;;;;;27.24;47.11;100069.66;10371299;28;20072;-71
2022/08/26 05:36:33;;;;;;;27.88;3.67;;;;;;;27.37;46.60;100068.19;10375816;28;20050;-73
2022/08/26 05:41:37;;;;;;;;;;;;;;;27.77;46.62;100062.34;10380086;28;20042;-73
2022/08/26 05:46:39;;;;;;;32.60;3.65;;;;;;;27.39;45.45;100004.06;10379278;28;19918;-72
2022/08/26 05:51:43;;;;;;;16.77;3.40;;;;;;;27.61;44.65;100052.69;10378980;28;20037;-73
2022/08/26 05:56:44;;;;;;;19.10;3.42;;;;;;;27.94;44.48;100058.34;10378841;28;20046;-72
2022/08/26 06:01:45;;;;;;;29.33;3.70;;;;;;;28.28;43.65;100071.09;10379000;28;20053;-74
2022/08/26 06:06:46;;;;;;;25.65;3.75;;;;;;;28.34;43.29;100072.66;10378411;28;20038;-72
2022/08/26 06:11:47;;;;;;;22.25;3.70;;;;;;;28.54;42.53;100075.16;10378905;28;20559;-74
2022/08/26 06:16:48;;;;;;;26.20;3.90;;;;;;;28.54;41.63;100066.94;10377802;28;20034;-74
2022/08/26 06:21:50;;;;;;;16.80;3.13;;;;;;;28.32;41.54;100001.09;10377666;28;20053;-75
2022/08/26 06:26:55;;;;;;;19.20;4.00;;;;;;;28.72;41.04;100048.94;10378537;28;20048;-74
2022/08/26 06:31:57;;;;;;;29.60;4.07;;;;;;;29.01;40.33;100051.47;10377964;28;20061;-76
2022/08/26 06:37:01;;;;;;;26.08;3.42;;;;;;;29.13;38.43;100054.56;10376860;28;20088;-70
2022/08/26 06:42:02;;;;;;;23.73;3.60;;;;;;;29.33;38.83;100061.63;10376605;28;20042;-73
2022/08/26 06:47:03;;;;;;;28.13;3.45;;;;;;;29.22;36.77;100001.91;10377455;28;20046;-72
2022/08/26 06:52:04;;;;;;;30.35;4.35;;;;;;;29.77;35.83;100048.56;10376109;28;20476;-72
2022/08/26 06:57:04;;;;;;;27.00;3.97;;;;;;;29.91;34.46;100045.81;10376015;28;20048;-74
2022/08/26 07:02:06;;;;;;;38.47;4.65;;;;;;;29.69;32.04;99978.91;10392066;28;20137;-76
2022/08/26 07:07:07;;;;;;;23.50;3.40;;;;;;;30.36;32.44;100030.38;10376716;28;20049;-73
2022/08/26 07:12:08;;;;;;;31.77;4.15;;;;;;;30.06;31.29;99976.22;10376079;28;20490;-75
2022/08/26 07:17:09;;;;;;;35.38;3.95;;;;;;;30.64;30.55;100024.84;10375706;28;20068;-71
2022/08/26 07:22:10;;;;;;;33.78;4.07;;;;;;;30.89;30.49;100018.75;10374952;28;20420;-76
2022/08/26 07:27:13;;;;;;;37.55;5.18;;;;;;;31.01;30.17;100001.75;10375564;28;20049;-74
2022/08/26 07:32:15;;;;;;;50.30;5.15;;;;;;;31.26;29.19;100004.94;10374630;28;20042;-75
2022/08/26 07:37:17;;;;;;;26.07;4.13;;;;;;;31.42;28.39;99966.97;10374941;28;20030;-71
2022/08/26 07:42:19;;;;;;;34.88;4.30;;;;;;;31.57;28.26;99972.03;10374879;28;20280;-69
2022/08/26 07:47:20;;;;;;;31.20;3.90;;;;;;;31.82;27.67;99976.78;10374173;28;20037;-76
2022/08/26 07:52:21;;;;;;;33.30;3.85;;;;;;;31.86;26.63;99966.00;10374491;28;20305;-76
2022/08/26 07:57:23;;;;;;;34.70;4.38;;;;;;;32.09;26.76;99966.69;10373922;28;20405;-74
2022/08/26 08:02:27;;;;;;;20.17;4.20;;;;;;;31.74;26.20;99910.84;10374124;28;20069;-75
2022/08/26 08:07:28;;;;;;;24.27;3.72;;;;;;;32.14;25.52;99972.03;10374489;28;20053;-71
2022/08/26 08:12:29;;;;;;;42.80;4.38;;;;;;;32.26;25.52;99958.47;10373138;28;20052;-75
2022/08/26 08:17:30;;;;;;;32.88;4.15;;;;;;;32.08;24.48;99901.09;10373102;28;20083;-70
2022/08/26 08:22:31;;;;;;;42.47;5.22;;;;;;;32.19;23.91;99881.22;10373788;28;20136;-78
2022/08/26 08:27:37;;;;;;;24.67;3.10;;;;;;;32.53;23.94;99918.06;10372774;28;20069;-73
2022/08/26 08:32:38;;;;;;;28.55;3.70;;;;;;;32.80;23.52;99927.09;10372958;28;20044;-75
2022/08/26 08:37:40;;;;;;;51.13;4.50;;;;;;;32.91;23.11;99914.59;10371232;28;20417;-79
2022/08/26 08:43:05;;;;;;;42.30;5.45;;;;;;;32.90;21.39;99900.03;10372681;28;20128;-73
2022/08/26 08:48:19;;;;;;;16.88;2.67;;;;;;;32.79;22.42;99859.44;10372491;28;20053;-73
2022/08/26 08:53:33;;;;;;;28.70;3.42;;;;;;;32.88;22.03;99841.00;10371492;28;20062;-72
2022/08/26 08:58:44;;;;;;;62.78;6.05;;;;;;;33.47;21.83;99909.84;10387912;28;20096;-75
2022/08/26 09:03:51;;;;;;;46.85;4.10;;;;;;;33.50;21.30;99898.16;10372032;28;20030;-70
2022/08/26 09:08:54;;;;;;;22.30;3.17;;;;;;;33.38;21.41;99859.53;10372777;28;20084;-76
2022/08/26 09:13:55;;;;;;;40.67;3.83;;;;;;;33.41;21.55;99875.38;10379772;28;20049;-77
2022/08/26 09:19:14;;;;;;;34.08;3.72;;;;;;;33.58;20.39;99893.78;10380420;28;20053;-73
2022/08/26 09:24:14;;;;;;;29.67;3.78;;;;;;;33.74;21.09;99872.78;10380246;28;20049;-75
2022/08/26 09:29:21;;;;;;;26.75;3.42;;;;;;;33.72;19.87;99863.25;10380770;28;20057;-76
2022/08/26 09:34:24;;;;;;;35.67;4.40;;;;;;;33.85;20.33;99889.72;10380002;28;20524;-75
2022/08/26 09:39:29;;;;;;;28.83;3.85;;;;;;;33.64;20.73;99851.16;10380090;28;20088;-76
2022/08/26 09:44:31;;;;;;;27.40;3.42;;;;;;;33.89;20.46;99889.84;10379450;28;20092;-74
2022/08/26 09:49:38;;;;;;;26.87;4.13;;;;;;;33.60;19.94;99840.00;10379096;28;20540;-70
2022/08/26 09:54:40;;;;;;;27.80;3.58;;;;;;;33.73;19.84;99865.66;10378577;28;20523;-73
2022/08/26 09:59:42;;;;;;;26.08;4.30;;;;;;;33.79;19.92;99833.22;10378599;28;20069;-72
2022/08/26 10:04:52;;;;;;;29.40;4.13;;;;;;;34.31;19.80;99907.22;10378314;28;20046;-78
2022/08/26 10:09:53;;;;;;;32.58;3.72;;;;;;;34.16;19.92;99889.34;10378931;28;20088;-74
2022/08/26 10:15:00;;;;;;;35.33;5.78;;;;;;;34.18;19.44;99889.00;10377507;28;20042;-75
2022/08/26 10:20:10;;;;;;;35.88;4.68;;;;;;;34.25;19.69;99879.06;10377658;28;20077;-71
2022/08/26 10:25:17;;;;;;;23.15;3.75;;;;;;;34.12;19.16;99890.38;10377757;28;20038;-74
2022/08/26 10:30:22;;;;;;;30.60;4.28;;;;;;;33.59;19.90;99827.34;10378466;28;20046;-75
2022/08/26 10:35:25;;;;;;;27.48;4.18;;;;;;;33.92;19.09;99867.94;10377687;28;20044;-73
2022/08/26 10:40:58;;;;;;;33.00;4.45;;;;;;;34.10;19.61;99887.94;10376678;28;20044;-77
2022/08/26 10:46:13;;;;;;;44.17;4.70;;;;;;;33.82;19.29;99813.25;10376774;28;20045;-74
2022/08/26 10:51:17;;;;;;;125.47;8.55;;;;;;;34.34;19.65;99870.69;10391770;28;20108;-73
2022/08/26 10:56:47;;;;;;;93.03;8.05;;;;;;;33.76;19.93;99814.59;10392031;28;20061;-74
2022/08/26 11:01:56;;;;;;;37.38;4.43;;;;;;;33.93;19.53;99842.03;10376998;28;20052;-75
2022/08/26 11:07:37;;;;;;;31.88;4.95;;;;;;;34.15;19.45;99864.88;10376767;28;20046;-70
2022/08/26 11:12:38;;;;;;;87.65;8.05;;;;;;;34.13;19.50;99847.88;10375503;28;20046;-74
2022/08/26 11:17:45;;;;;;;58.90;6.85;;;;;;;34.10;18.95;99857.63;10375298;28;20050;-71
2022/08/26 11:22:46;;;;;;;34.53;5.18;;;;;;;34.09;19.44;99845.78;10375287;28;20077;-75
2022/08/26 11:27:47;;;;;;;37.20;4.80;;;;;;;34.07;20.25;99833.47;10375533;28;20501;-70
2022/08/26 11:32:53;;;;;;;44.65;6.93;;;;;;;34.07;19.76;99841.75;10373519;28;20085;-77
2022/08/26 11:38:01;;;;;;;33.67;5.63;;;;;;;34.04;19.47;99828.66;10375088;28;20418;-71
2022/08/26 11:43:24;;;;;;;47.28;6.78;;;;;;;34.03;19.35;99833.38;10374989;28;20050;-74
2022/08/26 11:48:25;;;;;;;40.28;6.05;;;;;;;33.89;19.42;99816.25;10374623;28;20038;-74
2022/08/26 11:53:27;;;;;;;57.85;6.65;;;;;;;33.88;19.21;99822.94;10374008;28;20421;-73
2022/08/26 11:58:28;;;;;;;41.87;6.50;;;;;;;33.88;19.21;99816.63;10374649;28;20053;-78
2022/08/26 12:03:50;;;;;;;25.60;5.07;;;;;;;33.91;19.43;99807.69;10374157;28;20096;-76
2022/08/26 12:08:54;;;;;;;55.72;7.25;;;;;;;33.76;19.11;99789.81;10374438;28;20469;-74
2022/08/26 12:14:01;;;;;;;69.45;8.90;;;;;;;33.76;19.13;99809.09;10374145;28;20179;-75
2022/08/26 12:19:21;;;;;;;43.88;7.57;;;;;;;33.73;19.31;99805.06;10374399;28;20038;-71
2022/08/26 12:24:22;;;;;;;60.42;8.13;;;;;;;33.60;19.32;99793.19;10373388;28;20080;-75
2022/08/26 12:29:26;;;;;;;40.10;6.43;;;;;;;33.69;18.95;99817.09;10372757;28;20084;-76
2022/08/26 12:34:27;;;;;;;50.70;8.23;;;;;;;33.68;19.21;99785.19;10372828;28;20072;-77
2022/08/26 12:39:37;;;;;;;55.08;8.05;;;;;;;33.60;19.29;99806.94;10374043;28;20046;-71
2022/08/26 12:44:43;;;;;;;57.83;8.63;;;;;;;33.42;20.30;99814.50;10372568;28;20045;-78
2022/08/26 12:49:44;;;;;;;48.55;8.02;;;;;;;33.32;20.25;99816.81;10372535;28;20041;-75
2022/08/26 12:54:57;;;;;;;60.92;8.25;;;;;;;33.31;20.00;99810.50;10371958;28;20062;-79
2022/08/26 13:00:35;;;;;;;79.43;10.00;;;;;;;33.24;20.46;99817.69;10372401;28;20081;-77
2022/08/26 13:05:36;;;;;;;46.97;7.93;;;;;;;33.02;20.54;99796.75;10371765;28;20045;-76
2022/08/26 13:10:41;;;;;;;102.40;10.23;;;;;;;32.52;20.48;99740.50;10372158;28;20505;-80
2022/08/26 13:15:41;;;;;;;55.17;9.38;;;;;;;32.35;20.16;99735.03;10372033;28;20053;-77
2022/08/26 13:20:43;;;;;;;77.03;8.77;;;;;;;32.00;20.31;99691.16;10372074;28;20042;-76
2022/08/26 13:25:44;;;;;;;51.10;8.13;;;;;;;32.70;20.03;99813.53;10387624;28;20418;-74
2022/08/26 13:30:48;;;;;;;55.70;8.73;;;;;;;32.55;20.00;99816.00;10371144;28;20041;-74
2022/08/26 13:35:49;;;;;;;43.75;7.50;;;;;;;32.44;20.86;99807.28;10370620;28;20401;-75
2022/08/26 13:40:50;;;;;;;66.63;8.90;;;;;;;32.25;21.17;99760.94;10371053;28;20076;-73
2022/08/26 13:45:51;;;;;;;63.30;8.07;;;;;;;32.29;20.78;99817.66;10372598;28;20084;-73
2022/08/26 13:50:52;;;;;;;46.65;7.07;;;;;;;32.15;20.90;99806.03;10370994;28;20089;-76
2022/08/26 13:55:53;;;;;;;91.35;10.10;;;;;;;31.99;21.32;99805.72;10387612;28;20458;-71
2022/08/26 14:00:56;;;;;;;51.20;7.38;;;;;;;31.91;21.53;99813.97;10378314;28;20132;-73
2022/08/26 14:05:57;;;;;;;41.55;7.05;;;;;;;31.84;20.99;99828.97;10378144;28;20065;-76
2022/08/26 14:10:58;;;;;;;52.85;6.88;;;;;;;31.37;21.15;99760.13;10377377;28;20048;-71
2022/08/26 14:16:00;;;;;;;53.00;6.90;;;;;;;31.36;21.95;99788.72;10377730;28;20041;-70
2022/08/26 14:21:04;;;;;;;59.55;7.88;;;;;;;31.37;23.13;99816.97;10376552;28;20050;-76
2022/08/26 14:26:07;;;;;;;64.45;8.70;;;;;;;30.69;23.34;99747.78;10378604;28;20038;-75
2022/08/26 14:31:08;;;;;;;40.45;7.55;;;;;;;30.88;23.27;99816.16;10378043;28;20045;-73
2022/08/26 14:36:26;;;;;;;46.30;6.35;;;;;;;30.28;23.66;99759.88;10377460;28;20042;-76
2022/08/26 14:41:29;;;;;;;63.42;7.78;;;;;;;30.48;24.44;99827.84;10377432;28;20486;-77
2022/08/26 14:46:34;;;;;;;59.33;7.35;;;;;;;30.35;25.55;99826.00;10392516;28;20375;-75
2022/08/26 14:51:35;;;;;;;41.17;6.68;;;;;;;29.90;26.52;99776.66;10375584;28;20042;-79
2022/08/26 14:56:40;;;;;;;44.70;5.53;;;;;;;29.91;26.34;99788.41;10376199;28;20049;-78
2022/08/26 15:01:40;;;;;;;39.75;5.88;;;;;;;30.04;25.72;99842.34;10376360;28;20137;-68
2022/08/26 15:06:42;;;;;;;35.97;5.43;;;;;;;29.93;26.13;99824.53;10376280;28;20128;-71
2022/08/26 15:11:43;;;;;;;38.42;4.60;;;;;;;29.75;26.36;99834.50;10376289;28;20457;-73
2022/08/26 15:16:44;;;;;;;26.77;4.43;;;;;;;29.68;26.12;99839.63;10375433;28;20038;-74
2022/08/26 15:21:46;;;;;;;22.73;4.60;;;;;;;29.52;26.24;99855.50;10375887;28;20037;-79
2022/08/26 15:26:48;;;;;;;36.78;4.45;;;;;;;29.38;26.65;99850.06;10375807;28;20038;-75
2022/08/26 15:31:49;;;;;;;36.67;4.90;;;;;;;29.27;26.81;99856.84;10374794;28;20042;-74
2022/08/26 15:36:50;;;;;;;42.78;5.53;;;;;;;29.11;28.25;99853.63;10375184;28;20123;-76
2022/08/26 15:41:51;;;;;;;43.75;6.18;;;;;;;28.36;29.35;99761.72;10374461;28;20108;-78
2022/08/26 15:46:53;;;;;;;47.75;6.88;;;;;;;28.38;30.29;99797.75;10375832;28;20579;-73
2022/08/26 15:51:54;;;;;;;41.35;6.15;;;;;;;28.53;30.81;99854.91;10374606;28;20078;-75
2022/08/26 15:56:56;;;;;;;43.70;6.32;;;;;;;28.50;31.40;99873.81;10374467;28;20544;-76
2022/08/26 16:02:00;;;;;;;44.28;6.43;;;;;;;28.26;31.96;99865.72;10373708;28;20037;-75
2022/08/26 16:07:01;;;;;;;51.33;5.32;;;;;;;27.80;31.97;99812.63;10373537;28;20038;-73
2022/08/26 16:12:02;;;;;;;39.28;6.43;;;;;;;28.06;32.44;99875.84;10374146;28;20030;-72
2022/08/26 16:17:03;;;;;;;50.35;5.18;;;;;;;27.95;32.41;99882.56;10388986;28;20053;-73
2022/08/26 16:22:07;;;;;;;33.28;4.82;;;;;;;27.79;32.44;99892.88;10373082;28;20509;-73
2022/08/26 16:27:08;;;;;;;36.70;4.88;;;;;;;27.64;32.65;99893.84;10372773;28;20413;-74
2022/08/26 16:32:09;;;;;;;44.35;6.25;;;;;;;27.38;32.72;99887.09;10373907;28;20048;-74
2022/08/26 16:37:10;;;;;;;45.72;6.00;;;;;;;27.36;33.40;99908.38;10372932;28;20041;-74
2022/08/26 16:42:11;;;;;;;30.00;4.68;;;;;;;27.20;33.82;99899.56;10372365;28;20405;-75
2022/08/26 16:47:17;;;;;;;35.75;5.53;;;;;;;27.01;33.59;99880.34;10372855;28;20121;-75
2022/08/26 16:52:18;;;;;;;36.53;5.68;;;;;;;27.02;33.35;99901.88;10372668;28;20153;-76
2022/08/26 16:57:19;;;;;;;31.75;4.95;;;;;;;26.48;33.50;99836.72;10372901;28;20042;-75
2022/08/26 17:02:20;;;;;;;31.92;5.35;;;;;;;26.69;33.55;99889.13;10372451;28;20046;-74
2022/08/26 17:07:22;;;;;;;42.72;6.47;;;;;;;26.50;33.32;99878.91;10371782;28;20042;-76
2022/08/26 17:12:23;;;;;;;58.13;9.38;;;;;;;26.54;33.66;99899.06;10371614;28;20045;-73
2022/08/26 17:17:24;;;;;;;85.40;11.95;;;;;;;26.34;33.54;99897.25;10387686;28;20252;-74
2022/08/26 17:22:25;;;;;;;86.78;10.45;;;;;;;26.20;34.04;99901.72;10372588;28;20042;-73
2022/08/26 17:27:26;;;;;;;72.22;9.50;;;;;;;26.03;34.08;99904.00;10372554;28;20564;-76
2022/08/26 17:32:27;;;;;;;54.97;8.82;;;;;;;25.96;33.86;99918.72;10377423;28;20179;-73
2022/08/26 17:37:28;;;;;;;38.72;5.22;;;;;;;25.76;34.74;99910.66;10380181;28;20120;-74
2022/08/26 17:42:29;;;;;;;33.13;4.72;;;;;;;25.06;35.02;99826.31;10379739;28;20553;-77
2022/08/26 17:47:31;;;;;;;26.05;4.07;;;;;;;25.37;35.35;99897.75;10378787;28;20038;-74
2022/08/26 17:52:31;;;;;;;25.08;4.18;;;;;;;25.32;36.04;99899.66;10379185;28;20315;-74
2022/08/26 17:57:33;;;;;;;25.58;3.60;;;;;;;24.66;36.38;99827.22;10394527;28;20480;-74
2022/08/26 18:02:36;;;;;;;19.17;3.45;;;;;;;24.99;37.44;99908.13;10379089;28;20065;-74
2022/08/26 18:07:37;;;;;;;;;;;;;;;24.98;37.24;99894.81;10378999;28;20080;-74
2022/08/26 18:12:39;;;;;;;23.00;3.97;;;;;;;24.70;38.43;99893.47;10379081;28;20019;-77
2022/08/26 18:17:40;;;;;;;37.65;5.45;;;;;;;24.50;39.24;99884.25;10377725;28;20037;-73
2022/08/26 18:22:42;;;;;;;28.15;4.25;;;;;;;24.48;39.91;99899.19;10377768;28;20449;-73
2022/08/26 18:27:43;;;;;;;26.10;4.38;;;;;;;24.38;40.76;99883.69;10378463;28;20128;-72
2022/08/26 18:32:44;;;;;;;18.50;3.38;;;;;;;23.85;41.02;99807.09;10377440;28;20052;-75
2022/08/26 18:37:46;;;;;;;19.95;4.20;;;;;;;24.01;41.72;99860.28;10377468;28;20048;-74
2022/08/26 18:42:48;;;;;;;12.32;2.70;;;;;;;23.98;42.30;99863.53;10377475;28;20042;-73
2022/08/26 18:47:49;;;;;;;22.10;3.65;;;;;;;23.94;42.92;99873.31;10377256;28;20497;-74
2022/08/26 18:52:50;;;;;;;28.77;3.58;;;;;;;23.34;43.60;99785.25;10376295;28;20119;-73
2022/08/26 18:57:50;;;;;;;21.42;2.92;;;;;;;23.78;44.50;99877.03;10377415;28;20061;-75
2022/08/26 19:02:51;;;;;;;22.60;3.40;;;;;;;23.68;45.10;99867.75;10376032;28;20041;-75
2022/08/26 19:07:52;;;;;;;14.75;3.17;;;;;;;22.79;45.40;99734.06;10376324;28;20042;-80
2022/08/26 19:12:53;;;;;;;21.92;3.17;;;;;;;23.49;45.95;99863.09;10376661;28;20041;-75
2022/08/26 19:17:55;;;;;;;25.95;3.67;;;;;;;23.44;46.39;99888.28;10376121;28;20120;-79
2022/08/26 19:22:56;;;;;;;9.50;2.50;;;;;;;23.36;47.30;99894.19;10390803;28;20048;-81
2022/08/26 19:27:57;;;;;;;13.98;2.80;;;;;;;23.13;48.02;99869.16;10376452;28;20674;-80
2022/08/26 19:32:58;;;;;;;15.18;2.75;;;;;;;23.18;48.80;99885.44;10374677;28;20132;-76
2022/08/26 19:37:59;;;;;;;9.07;2.72;;;;;;;23.11;49.47;99890.28;10374627;28;20452;-76
2022/08/26 19:43:00;;;;;;;9.85;2.97;;;;;;;23.02;50.29;99889.13;10375463;28;20139;-78
2022/08/26 19:48:02;;;;;;;14.98;2.72;;;;;;;22.58;51.16;99829.75;10373994;28;20583;-78
2022/08/26 19:53:05;;;;;;;10.98;2.30;;;;;;;22.96;51.73;99901.81;10373556;28;20085;-80
2022/08/26 19:58:06;;;;;;;8.25;2.45;;;;;;;22.89;52.39;99906.63;10374332;28;20437;-78
2022/08/26 20:03:08;;;;;;;12.98;2.88;;;;;;;22.82;53.33;99902.50;10374361;28;20042;-78
2022/08/26 20:08:09;;;;;;;13.23;2.60;;;;;;;22.48;53.72;99871.09;10374636;28;20096;-76
2022/08/26 20:13:09;;;;;;;15.52;2.35;;;;;;;22.72;54.18;99908.66;10373376;28;20126;-73
2022/08/26 20:23:29;;;;;;;15.57;2.72;;;;;;;22.44;55.87;99866.47;10372926;28;20056;-76
2022/08/26 20:28:32;;;;;;;12.48;2.45;;;;;;;22.47;56.37;99884.91;10372838;28;20129;-75
2022/08/26 20:33:33;;;;;;;10.48;2.65;;;;;;;21.94;56.73;99802.69;10373569;28;20049;-75
2022/08/26 20:38:34;;;;;;;14.05;2.42;;;;;;;22.46;57.33;99888.66;10373324;28;20034;-75
2022/08/26 20:43:35;;;;;;;16.27;2.60;;;;;;;22.36;57.78;99884.00;10388461;28;20100;-76
2022/08/26 20:48:36;;;;;;;23.10;3.35;;;;;;;22.33;58.16;99885.31;10372748;28;20095;-74
2022/08/26 20:53:37;;;;;;;12.18;2.42;;;;;;;22.32;58.34;99874.75;10372046;28;20069;-74
2022/08/26 20:58:38;;;;;;;20.70;2.80;;;;;;;21.78;59.17;99797.13;10372679;28;20050;-75
2022/08/26 21:03:39;;;;;;;6.38;2.00;;;;;;;22.22;59.10;99877.34;10372276;28;20057;-74
2022/08/26 21:08:40;;;;;;;9.90;2.20;;;;;;;22.23;59.55;99870.91;10372055;28;20037;-75
2022/08/26 21:13:41;;;;;;;7.13;2.30;;;;;;;22.22;59.76;99872.75;10371598;28;20192;-76
2022/08/26 21:18:42;;;;;;;13.45;2.97;;;;;;;22.17;60.13;99880.84;10372650;28;20530;-77
2022/08/26 21:23:43;;;;;;;14.65;2.63;;;;;;;22.13;60.27;99866.16;10372351;28;20136;-75
2022/08/26 21:28:45;;;;;;;11.10;2.67;;;;;;;21.93;60.26;99839.75;10371951;28;20545;-74
2022/08/26 21:33:45;;;;;;;9.27;2.50;;;;;;;21.97;60.86;99838.16;10371175;28;20073;-75
2022/08/26 21:38:46;;;;;;;10.05;2.45;;;;;;;21.80;60.92;99816.59;10372253;28;20088;-75
2022/08/26 21:43:48;;;;;;;14.43;2.65;;;;;;;21.97;61.08;99848.16;10371312;28;20073;-74
2022/08/26 21:49:00;;;;;;;8.00;2.05;;;;;;;21.96;62.53;99852.75;10371334;28;20046;-75
2022/08/26 21:54:03;;;;;;;11.25;2.40;;;;;;;21.94;61.61;99845.97;10371978;28;20470;-75
2022/08/26 21:59:04;;;;;;;8.88;2.28;;;;;;;21.89;61.50;99844.00;10371439;28;20520;-75
2022/08/26 22:04:07;;;;;;;11.00;2.17;;;;;;;21.76;61.92;99826.31;10370857;28;20048;-74
2022/08/26 22:09:08;;;;;;;11.05;2.05;;;;;;;21.35;61.96;99757.44;10370628;28;20506;-74
2022/08/26 22:14:09;;;;;;;10.25;2.53;;;;;;;21.76;61.93;99822.78;10371225;28;20041;-75
2022/08/26 22:19:10;;;;;;;15.35;2.28;;;;;;;21.63;62.38;99805.91;10375268;28;20077;-74
2022/08/26 22:24:11;;;;;;;13.52;2.92;;;;;;;21.71;62.52;99834.34;10377977;28;20092;-74
2022/08/26 22:29:13;;;;;;;10.60;2.35;;;;;;;21.68;62.77;99823.22;10377993;28;20085;-75
2022/08/26 22:34:16;;;;;;;18.48;3.03;;;;;;;21.65;63.40;99809.16;10377806;28;20050;-75
2022/08/26 22:39:21;;;;;;;12.02;2.60;;;;;;;21.48;64.03;99789.53;10378051;28;20041;-77
2022/08/26 22:44:22;;;;;;;10.68;2.35;;;;;;;21.64;63.30;99804.00;10377318;28;20512;-74
2022/08/26 22:49:23;;;;;;;8.77;2.47;;;;;;;21.60;63.54;99808.31;10376611;28;20046;-74
2022/08/26 22:54:24;;;;;;;13.07;2.40;;;;;;;21.46;63.79;99777.31;10377226;28;20069;-73
2022/08/26 22:59:25;;;;;;;8.05;2.40;;;;;;;21.58;64.27;99813.13;10376230;28;20080;-74
2022/08/26 23:04:25;;;;;;;13.48;2.47;;;;;;;21.47;64.53;99795.97;10375940;28;20119;-74
2022/08/26 23:09:26;;;;;;;10.07;2.80;;;;;;;21.33;64.58;99781.19;10376259;28;20046;-74
2022/08/26 23:14:27;;;;;;;7.53;2.00;;;;;;;21.53;64.60;99805.78;10374373;28;20529;-73
2022/08/26 23:19:28;;;;;;;15.00;2.60;;;;;;;21.17;64.95;99726.19;10391078;28;20042;-75